Impacts TAF Board
For situational awareness. Not to be used for flight planning purposes.
IDs:

KRUT - Rutland/S Vermont Rg, VT, US

Issued at 2320 UTC 28 Nov 2020
Updated at 0244 UTC 29 Nov 2020
Potential Impact None Slight Moderate High
Time0156Z 29/03Z 29/04Z 29/05Z 29/06Z 29/07Z 29/08Z 29/09Z 29/10Z 29/11Z 29/12Z 29/13Z 29/14Z 29/15Z>>
Type OBS PRVL PRVL PRVL PRVL PRVL PRVL PRVL PRVL PRVL PRVL PRVL PRVL PRVL
VIS 10 >6 >6 >6 >6 >6 >6 >6 >6 >6 >6 >6 >6 >6
CIG 39 -- -- -- -- -- -- -- -- -- -- -- -- --
Cover OVC SCT SCT SCT SCT SCT SCT SCT SCT SCT SCT SCT SCT SKC
FltCat VFR VFR VFR VFR VFR VFR VFR VFR VFR VFR VFR VFR VFR VFR
WX -- -- -- -- -- -- -- -- -- -- -- -- -- --
WDir VRB 270 270 200 200 200 200 200 200 200 200 200 200 240
WSpd 0 6 6 4 4 4 4 4 4 4 4 4 4 6
WGst -- -- -- -- -- -- -- -- -- -- -- -- -- --
Raw TAF
KRUT 282320Z 2900/2924 27006KT P6SM SCT060
  FM290500 20004KT P6SM SCT070
  FM291500 24006KT P6SM SKC


Raw METAR
KRUT 290156Z AUTO 00000KT 10SM OVC039 02/M02 A3000 RMK AO2 SLP158 T00221017 FZRANO PNO $
KRUT 290056Z AUTO 36005KT 10SM FEW041 03/M03 A2999 RMK AO2 SLP157 T00331028 PNO $
KRUT 282356Z AUTO 33004KT 10SM SCT047 04/M02 A2998 RMK AO2 SLP154 6//// T00391022 10056 20033 51016 PNO $

METAR Board
Radar Display
Forecast Discussion
For situational awareness. Not to be used for flight planning purposes.